createdAt,value
2022-10-17T00:00:42.386Z,100948.19
2022-10-17T00:03:09.485Z,100961.09
2022-10-17T00:05:40.938Z,100947.28
2022-10-17T00:08:07.662Z,100949.91
2022-10-17T00:10:34.449Z,100961.16
2022-10-17T00:13:01.049Z,100942.06
2022-10-17T00:15:36.782Z,100942.03
2022-10-17T00:18:03.639Z,100968.88
2022-10-17T00:20:30.645Z,100969.75
2022-10-17T00:22:57.481Z,100962.84
2022-10-17T00:25:24.274Z,100961.94
2022-10-17T00:27:51.066Z,100961.94
2022-10-17T00:30:17.848Z,100966.22
2022-10-17T00:32:44.537Z,100967.06
2022-10-17T00:35:11.282Z,100963.59
2022-10-17T00:37:37.914Z,100969.63
2022-10-17T00:40:06.613Z,100958.38
2022-10-17T00:42:33.301Z,100966.94
2022-10-17T00:45:05.655Z,100970.44
2022-10-17T00:47:33.762Z,100922.00
2022-10-17T00:52:32.367Z,100965.25
2022-10-17T00:55:13.779Z,100958.38
2022-10-17T00:57:40.953Z,100947.09
2022-10-17T01:00:10.412Z,100955.78
2022-10-17T01:02:37.454Z,100964.41
2022-10-17T01:05:04.537Z,100946.28
2022-10-17T01:07:34.698Z,100951.47
2022-10-17T01:10:05.463Z,100951.44
2022-10-17T01:12:31.992Z,100960.03
2022-10-17T01:15:08.037Z,100959.25
2022-10-17T01:17:34.565Z,100955.78
2022-10-17T01:20:04.197Z,100955.78
2022-10-17T01:22:50.629Z,100952.34
2022-10-17T01:25:23.308Z,100946.34
2022-10-17T01:27:56.492Z,100942.91
2022-10-17T01:30:29.147Z,100951.56
2022-10-17T01:33:13.111Z,100948.97
2022-10-17T01:36:47.663Z,100946.41
2022-10-17T01:39:47.767Z,100942.13
2022-10-17T01:42:18.983Z,100948.16
2022-10-17T01:44:55.674Z,100936.00
2022-10-17T01:47:27.334Z,100934.28
2022-10-17T01:49:55.310Z,100931.69
2022-10-17T01:52:28.068Z,100926.50
2022-10-17T01:55:09.367Z,100930.81
2022-10-17T01:57:42.616Z,100931.63
2022-10-17T02:00:13.055Z,100896.16
2022-10-17T02:02:40.383Z,100933.34
2022-10-17T02:05:07.314Z,100912.66
2022-10-17T02:07:34.328Z,100933.41
2022-10-17T02:10:00.929Z,100918.69
2022-10-17T02:12:30.518Z,100934.31
2022-10-17T02:15:19.136Z,100936.91
2022-10-17T02:17:56.813Z,100935.19
2022-10-17T02:20:29.549Z,100933.50
2022-10-17T02:22:58.775Z,100933.53
2022-10-17T02:25:36.161Z,100943.88
2022-10-17T02:28:24.459Z,100926.56
2022-10-17T02:30:57.129Z,100934.31
2022-10-17T02:33:47.722Z,100932.63
2022-10-17T02:36:19.533Z,100937.00
2022-10-17T02:38:46.575Z,100924.88
2022-10-17T02:41:16.706Z,100916.22
2022-10-17T02:43:45.504Z,100930.06
2022-10-17T02:46:20.865Z,100938.72
2022-10-17T02:48:52.083Z,100936.97
2022-10-17T02:51:24.741Z,100928.34
2022-10-17T02:54:16.163Z,100926.63
2022-10-17T02:57:15.440Z,100913.69
2022-10-17T02:59:43.277Z,100917.13
2022-10-17T03:02:09.914Z,100926.66
2022-10-17T03:04:36.589Z,100919.69
2022-10-17T03:07:03.245Z,100937.00
2022-10-17T03:09:29.872Z,100935.28
2022-10-17T03:11:56.634Z,100953.47
2022-10-17T03:14:23.221Z,100953.44
2022-10-17T03:16:49.915Z,100961.22
2022-10-17T03:19:16.550Z,100970.75
2022-10-17T03:21:43.191Z,100984.56
2022-10-17T03:24:09.803Z,100982.81
2022-10-17T03:26:36.595Z,100981.06
2022-10-17T03:29:03.955Z,100978.41
2022-10-17T03:31:30.640Z,100985.34
2022-10-17T03:33:57.237Z,100970.63
2022-10-17T03:36:23.887Z,100992.25
2022-10-17T03:38:54.662Z,100990.44
2022-10-17T03:41:21.304Z,101005.09
2022-10-17T03:43:47.903Z,101009.38
2022-10-17T03:46:14.616Z,100994.56
2022-10-17T03:48:41.306Z,101003.09
2022-10-17T03:51:09.931Z,101009.16
2022-10-17T03:53:36.562Z,101016.94
2022-10-17T03:56:18.162Z,101009.09
2022-10-17T03:58:44.957Z,101023.66
2022-10-17T04:01:14.645Z,101016.63
2022-10-17T04:03:42.455Z,101016.56
2022-10-17T04:06:11.562Z,101013.16
2022-10-17T04:08:38.683Z,101014.03
2022-10-17T04:11:07.584Z,101017.50
2022-10-17T04:13:34.846Z,101024.44
2022-10-17T04:16:05.986Z,101020.91
2022-10-17T04:18:33.264Z,101009.63
2022-10-17T04:21:04.170Z,101009.59
2022-10-17T04:23:30.988Z,101012.22
2022-10-17T04:25:58.463Z,100999.22
2022-10-17T04:28:26.384Z,101003.63
2022-10-17T04:31:00.882Z,100994.22
2022-10-17T04:33:28.016Z,100985.63
2022-10-17T04:36:01.842Z,100988.28
2022-10-17T04:38:29.340Z,100999.56
2022-10-17T04:41:03.138Z,100994.31
2022-10-17T04:43:34.413Z,100979.72
2022-10-17T04:46:02.992Z,100968.50
2022-10-17T04:48:30.117Z,100991.91
2022-10-17T04:51:01.791Z,100990.25
2022-10-17T04:53:30.689Z,100992.88
2022-10-17T04:55:57.309Z,100982.56
2022-10-17T04:58:24.212Z,100993.00
2022-10-17T05:00:50.873Z,100985.22
2022-10-17T05:03:17.504Z,100994.75
2022-10-17T05:05:44.106Z,100991.34
2022-10-17T05:08:11.528Z,100988.75
2022-10-17T05:10:43.909Z,101000.03
2022-10-17T05:13:11.164Z,101001.78
2022-10-17T05:15:38.623Z,100993.19
2022-10-17T05:18:06.204Z,101007.91
2022-10-17T05:20:33.399Z,100994.94
2022-10-17T05:23:00.752Z,101002.78
2022-10-17T05:25:27.356Z,101010.56
2022-10-17T05:27:54.491Z,101009.72
2022-10-17T05:30:21.362Z,101014.03
2022-10-17T05:32:47.944Z,100998.47
2022-10-17T05:35:14.631Z,101008.06
2022-10-17T05:37:41.233Z,101013.25
2022-10-17T05:40:08.472Z,101004.59
2022-10-17T05:42:35.222Z,100986.44
2022-10-17T05:45:01.914Z,101001.13
2022-10-17T05:47:28.854Z,101002.88
2022-10-17T05:49:55.831Z,101011.53
2022-10-17T05:52:22.508Z,101001.16
2022-10-17T05:54:49.433Z,100996.81
2022-10-17T05:57:16.098Z,101006.34
2022-10-17T05:59:42.694Z,101019.31
2022-10-17T06:02:11.482Z,101021.91
2022-10-17T06:04:38.084Z,101014.06
2022-10-17T06:07:05.185Z,101006.25
2022-10-17T06:09:31.811Z,101024.41
2022-10-17T06:11:58.473Z,101018.31
2022-10-17T06:14:25.708Z,101008.78
2022-10-17T06:16:52.689Z,100993.22
2022-10-17T06:19:19.493Z,100941.22
2022-10-17T06:21:46.599Z,100939.47
2022-10-17T06:24:13.438Z,100966.25
2022-10-17T06:26:40.214Z,100971.38
2022-10-17T06:29:07.490Z,100956.63
2022-10-17T06:31:34.226Z,101013.59
2022-10-17T06:34:00.911Z,101029.13
2022-10-17T06:36:27.670Z,101041.19
2022-10-17T06:38:54.333Z,101037.69
2022-10-17T06:41:21.129Z,101048.88
2022-10-17T06:43:47.916Z,101051.41
2022-10-17T06:46:16.183Z,101055.63
2022-10-17T06:48:42.928Z,101048.56
2022-10-17T06:51:12.563Z,101052.88
2022-10-17T06:53:40.894Z,101045.00
2022-10-17T06:56:08.871Z,101043.97
2022-10-17T06:58:40.019Z,101043.84
2022-10-17T07:03:41.447Z,101044.53
2022-10-17T07:06:08.635Z,100996.88
2022-10-17T07:08:35.398Z,100966.50
2022-10-17T07:11:13.821Z,100969.78
2022-10-17T07:13:42.069Z,100997.25
2022-10-17T07:16:09.902Z,101030.00
2022-10-17T07:18:37.113Z,100941.88
2022-10-17T07:21:04.345Z,100992.78
2022-10-17T07:23:32.021Z,101053.78
2022-10-17T07:26:02.952Z,101058.91
2022-10-17T07:28:31.818Z,101046.63
2022-10-17T07:31:04.323Z,101047.69
2022-10-17T07:33:31.149Z,101062.94
2022-10-17T07:36:02.391Z,101049.84
2022-10-17T07:38:29.061Z,101047.03
2022-10-17T07:41:01.723Z,101051.97
2022-10-17T07:43:29.664Z,101038.84
2022-10-17T07:45:56.823Z,101031.78
2022-10-17T07:48:24.556Z,101032.50
2022-10-17T07:50:51.435Z,101039.19
2022-10-17T07:53:18.460Z,101034.69
2022-10-17T07:55:46.495Z,101022.22
2022-10-17T07:58:14.241Z,101038.38
2022-10-17T08:00:41.081Z,101032.19
2022-10-17T08:03:07.869Z,101033.06
2022-10-17T08:05:34.595Z,101032.97
2022-10-17T08:08:01.192Z,101027.53
2022-10-17T08:10:29.416Z,101038.75
2022-10-17T08:12:57.713Z,101025.47
2022-10-17T08:15:31.702Z,101026.13
2022-10-17T08:17:58.997Z,101027.53
2022-10-17T08:20:25.640Z,101027.50
2022-10-17T08:22:55.868Z,101027.06
2022-10-17T08:25:22.942Z,101015.03
2022-10-17T08:27:50.279Z,101017.47
2022-10-17T08:30:17.577Z,101030.19
2022-10-17T08:32:44.242Z,101022.00
2022-10-17T08:35:11.497Z,101021.94
2022-10-17T08:37:38.588Z,101009.84
2022-10-17T08:40:05.859Z,101019.00
2022-10-17T08:42:54.084Z,101012.66
2022-10-17T08:45:32.827Z,101005.41
2022-10-17T08:48:02.054Z,100997.25
2022-10-17T08:50:42.961Z,100996.69
2022-10-17T08:53:17.973Z,100997.22
2022-10-17T08:55:47.545Z,100990.75
2022-10-17T08:58:24.984Z,100977.81
2022-10-17T09:00:55.717Z,100994.09
2022-10-17T09:03:29.946Z,101000.84
2022-10-17T09:06:11.599Z,101006.84
2022-10-17T09:09:22.823Z,101011.03
2022-10-17T09:11:52.117Z,101010.72
2022-10-17T09:14:32.275Z,101020.97
2022-10-17T09:17:07.938Z,101015.56
2022-10-17T09:19:50.393Z,101000.63
2022-10-17T09:22:23.118Z,101005.91
2022-10-17T09:24:57.666Z,101014.38
2022-10-17T09:27:44.881Z,101009.91
2022-10-17T09:30:45.468Z,101000.03
2022-10-17T09:33:34.688Z,100999.56
2022-10-17T09:36:17.780Z,100983.03
2022-10-17T09:38:56.132Z,100967.50
2022-10-17T09:41:44.232Z,100992.47
2022-10-17T09:44:18.087Z,100999.91
2022-10-17T09:47:14.276Z,100996.34
2022-10-17T09:49:43.101Z,100987.53
2022-10-17T09:52:15.645Z,100991.88
2022-10-17T09:55:07.030Z,100976.41
2022-10-17T09:57:56.168Z,100992.22
2022-10-17T10:00:26.776Z,100977.53
2022-10-17T10:03:11.535Z,100980.44
2022-10-17T10:05:38.515Z,100974.31
2022-10-17T10:08:13.867Z,100992.75
2022-10-17T10:10:43.476Z,100981.84
2022-10-17T10:13:12.866Z,100986.28
2022-10-17T10:15:41.687Z,100972.97
2022-10-17T10:18:35.803Z,100976.84
2022-10-17T10:21:20.339Z,100975.72
2022-10-17T10:24:09.753Z,100967.72
2022-10-17T10:26:42.994Z,100959.75
2022-10-17T10:29:33.158Z,100961.88
2022-10-17T10:32:11.941Z,100969.03
2022-10-17T10:34:50.465Z,100960.44
2022-10-17T10:37:20.535Z,100963.97
2022-10-17T10:39:53.452Z,100973.44
2022-10-17T10:42:39.727Z,100988.91
2022-10-17T10:45:29.362Z,100985.88
2022-10-17T10:48:14.138Z,100976.75
2022-10-17T10:50:45.386Z,100978.16
2022-10-17T10:53:40.990Z,100979.38
2022-10-17T10:56:37.054Z,100986.47
2022-10-17T10:59:09.547Z,100971.69
2022-10-17T11:01:51.060Z,100996.84
2022-10-17T11:04:44.410Z,100984.03
2022-10-17T11:07:20.243Z,100964.88
2022-10-17T11:10:05.772Z,100968.22
2022-10-17T11:15:40.731Z,100954.59
2022-10-17T11:18:45.132Z,100945.41
2022-10-17T11:21:17.167Z,100945.78
2022-10-17T11:23:48.740Z,100941.91
2022-10-17T11:30:00.880Z,100865.31
2022-10-17T11:32:35.014Z,100884.31
2022-10-17T11:35:18.296Z,100921.28
2022-10-17T11:37:50.541Z,100920.63
2022-10-17T11:40:31.330Z,100905.94
2022-10-17T11:43:01.480Z,100867.19
2022-10-17T11:45:34.226Z,100911.84
2022-10-17T11:48:08.078Z,100911.41
2022-10-17T11:54:05.040Z,100909.78
2022-10-17T11:56:46.809Z,100899.81
2022-10-17T11:59:40.213Z,100914.34
2022-10-17T12:02:17.336Z,100919.25
2022-10-17T12:05:17.599Z,100905.88
2022-10-17T12:07:59.337Z,100909.78
2022-10-17T12:10:53.930Z,100894.00
2022-10-17T12:13:30.324Z,100895.13
2022-10-17T12:15:58.253Z,100892.41
2022-10-17T12:18:27.496Z,100887.94
2022-10-17T12:20:58.399Z,100882.31
2022-10-17T12:23:29.535Z,100884.69
2022-10-17T12:26:04.509Z,100872.97
2022-10-17T12:28:32.324Z,100888.38
2022-10-17T12:31:02.850Z,100892.59
2022-10-17T12:33:58.374Z,100885.59
2022-10-17T12:36:30.841Z,100874.84
2022-10-17T12:39:03.539Z,100882.63
2022-10-17T12:41:39.276Z,100888.72
2022-10-17T12:44:26.989Z,100872.22
2022-10-17T12:47:19.450Z,100882.38
2022-10-17T12:49:53.136Z,100879.06
2022-10-17T12:52:31.620Z,100883.44
2022-10-17T12:55:13.026Z,100880.69
2022-10-17T12:57:56.866Z,100875.53
2022-10-17T13:00:34.574Z,100875.34
2022-10-17T13:03:12.819Z,100874.78
2022-10-17T13:05:43.752Z,100884.81
2022-10-17T13:08:16.993Z,100885.47
2022-10-17T13:10:47.091Z,100872.78
2022-10-17T13:13:19.342Z,100882.75
2022-10-17T13:15:50.729Z,100882.56
2022-10-17T13:18:25.848Z,100883.34
2022-10-17T13:21:15.680Z,100882.22
2022-10-17T13:23:42.408Z,100877.28
2022-10-17T13:26:20.560Z,100877.47
2022-10-17T13:29:11.659Z,100874.72
2022-10-17T13:31:40.606Z,100875.44
2022-10-17T13:34:23.662Z,100874.84
2022-10-17T13:37:19.659Z,100880.94
2022-10-17T13:40:11.420Z,100869.56
2022-10-17T13:42:38.578Z,100868.00
2022-10-17T13:45:17.406Z,100863.78
2022-10-17T13:47:44.355Z,100865.69
2022-10-17T13:50:43.257Z,100856.69
2022-10-17T13:53:18.952Z,100872.44
2022-10-17T13:56:09.446Z,100862.22
2022-10-17T13:58:45.903Z,100875.34
2022-10-17T14:01:14.274Z,100876.31
2022-10-17T14:03:48.545Z,100873.63
2022-10-17T14:06:16.947Z,100871.91
2022-10-17T14:09:04.614Z,100857.28
2022-10-17T14:11:35.344Z,100857.53
2022-10-17T14:14:04.195Z,100855.84
2022-10-17T14:16:40.253Z,100851.53
2022-10-17T14:19:23.394Z,100840.31
2022-10-17T14:21:54.112Z,100842.16
2022-10-17T14:24:23.801Z,100849.06
2022-10-17T14:26:55.740Z,100846.69
2022-10-17T14:29:24.593Z,100849.84
2022-10-17T14:31:58.362Z,100839.09
2022-10-17T14:34:29.738Z,100848.09
2022-10-17T14:36:57.442Z,100851.03
2022-10-17T14:39:25.330Z,100855.50
2022-10-17T14:41:52.489Z,100854.13
2022-10-17T14:44:21.108Z,100844.09
2022-10-17T14:46:51.284Z,100856.38
2022-10-17T14:49:25.118Z,100871.59
2022-10-17T14:52:18.561Z,100866.69
2022-10-17T14:54:47.586Z,100862.38
2022-10-17T14:57:34.522Z,100859.81
2022-10-17T15:00:01.323Z,100860.06
2022-10-17T15:02:29.791Z,100858.72
2022-10-17T15:04:56.765Z,100870.91
2022-10-17T15:07:24.067Z,100876.28
2022-10-17T15:09:52.042Z,100872.22
2022-10-17T15:12:21.250Z,100878.34
2022-10-17T15:14:51.869Z,100870.63
2022-10-17T15:17:21.874Z,100864.53
2022-10-17T15:19:50.676Z,100875.06
2022-10-17T15:22:18.359Z,100871.56
2022-10-17T15:24:48.366Z,100879.78
2022-10-17T15:27:26.525Z,100868.94
2022-10-17T15:29:53.395Z,100885.41
2022-10-17T15:32:20.224Z,100877.88
2022-10-17T15:34:46.889Z,100879.09
2022-10-17T15:37:24.696Z,100894.16
2022-10-17T15:39:54.174Z,100892.53
2022-10-17T15:42:22.506Z,100877.50
2022-10-17T15:44:50.353Z,100881.22
2022-10-17T15:47:31.424Z,100890.91
2022-10-17T15:50:00.160Z,100898.31
2022-10-17T15:52:27.430Z,100901.72
2022-10-17T15:54:56.430Z,100902.00
2022-10-17T15:57:28.211Z,100910.09
2022-10-17T15:59:56.359Z,100906.94
2022-10-17T16:02:23.806Z,100905.03
2022-10-17T16:04:51.418Z,100912.63
2022-10-17T16:07:19.206Z,100918.06
2022-10-17T16:09:46.174Z,100840.88
2022-10-17T16:12:19.430Z,100901.81
2022-10-17T16:14:46.083Z,100903.31
2022-10-17T16:17:15.248Z,100892.13
2022-10-17T16:19:42.894Z,100881.09
2022-10-17T16:22:21.397Z,100893.47
2022-10-17T16:24:48.030Z,100888.44
2022-10-17T16:27:16.911Z,100880.84
2022-10-17T16:29:43.645Z,100877.28
2022-10-17T16:32:10.342Z,100886.06
2022-10-17T16:34:37.044Z,100891.41
2022-10-17T16:37:03.707Z,100888.91
2022-10-17T16:39:30.412Z,100868.22
2022-10-17T16:41:58.626Z,100876.19
2022-10-17T16:44:25.749Z,100878.97
2022-10-17T16:46:52.345Z,100871.25
2022-10-17T16:49:19.026Z,100884.44
2022-10-17T16:51:45.660Z,100885.22
2022-10-17T16:54:12.358Z,100888.91
2022-10-17T16:56:39.173Z,100893.31
2022-10-17T16:59:05.851Z,100883.00
2022-10-17T17:01:32.462Z,100896.09
2022-10-17T17:03:59.348Z,100891.09
2022-10-17T17:06:28.898Z,100882.22
2022-10-17T17:08:56.094Z,100883.31
2022-10-17T17:11:25.000Z,100880.81
2022-10-17T17:13:52.184Z,100881.63
2022-10-17T17:16:24.517Z,100876.63
2022-10-17T17:18:56.129Z,100884.34
2022-10-17T17:21:22.929Z,100887.88
2022-10-17T17:23:49.727Z,100893.38
2022-10-17T17:26:22.161Z,100887.25
2022-10-17T17:28:49.695Z,100893.91
2022-10-17T17:31:19.471Z,100891.47
2022-10-17T17:33:46.980Z,100896.72
2022-10-17T17:36:17.405Z,100879.66
2022-10-17T17:38:44.890Z,100884.94
2022-10-17T17:41:13.909Z,100857.41
2022-10-17T17:43:41.408Z,100876.88
2022-10-17T17:46:08.461Z,100875.47
2022-10-17T17:48:41.674Z,100865.13
2022-10-17T17:51:09.826Z,100872.03
2022-10-17T17:53:37.012Z,100871.19
2022-10-17T17:56:16.617Z,100871.41
2022-10-17T17:58:48.561Z,100875.00
2022-10-17T18:01:20.326Z,100873.31
2022-10-17T18:03:47.889Z,100874.38
2022-10-17T18:06:14.810Z,100852.78
2022-10-17T18:08:45.239Z,100864.16
2022-10-17T18:11:12.137Z,100861.75
2022-10-17T18:13:38.787Z,100869.56
2022-10-17T18:16:13.247Z,100860.06
2022-10-17T18:18:41.726Z,100879.88
2022-10-17T18:21:09.215Z,100868.13
2022-10-17T18:23:46.986Z,100876.72
2022-10-17T18:26:14.678Z,100869.00
2022-10-17T18:28:42.888Z,100874.44
2022-10-17T18:31:35.505Z,100873.69
2022-10-17T18:34:03.158Z,100871.72
2022-10-17T18:36:30.952Z,100874.31
2022-10-17T18:38:59.590Z,100869.59
2022-10-17T18:41:27.083Z,100870.25
2022-10-17T18:43:54.800Z,100871.94
2022-10-17T18:46:27.431Z,100872.16
2022-10-17T18:48:54.239Z,100859.44
2022-10-17T18:51:22.587Z,100882.25
2022-10-17T18:53:58.722Z,100883.28
2022-10-17T18:56:26.005Z,100878.19
2022-10-17T18:58:52.726Z,100887.38
2022-10-17T19:01:22.221Z,100890.84
2022-10-17T19:03:50.446Z,100888.16
2022-10-17T19:06:19.203Z,100890.06
2022-10-17T19:08:46.487Z,100889.03
2022-10-17T19:11:18.890Z,100888.34
2022-10-17T19:13:47.199Z,100880.41
2022-10-17T19:16:22.166Z,100878.78
2022-10-17T19:18:52.925Z,100886.25
2022-10-17T19:21:21.987Z,100877.75
2022-10-17T19:23:57.713Z,100870.34
2022-10-17T19:26:24.715Z,100885.72
2022-10-17T19:28:53.592Z,100888.09
2022-10-17T19:31:26.444Z,100879.63
2022-10-17T19:33:54.833Z,100886.63
2022-10-17T19:36:23.063Z,100888.19
2022-10-17T19:38:52.991Z,100879.47
2022-10-17T19:41:19.780Z,100873.41
2022-10-17T19:43:46.437Z,100871.50
2022-10-17T19:46:15.742Z,100881.19
2022-10-17T19:48:43.277Z,100879.34
2022-10-17T19:51:14.939Z,100882.44
2022-10-17T19:53:42.200Z,100883.25
2022-10-17T19:56:09.928Z,100879.75
2022-10-17T19:58:43.958Z,100873.75
2022-10-17T20:01:21.965Z,100885.00
2022-10-17T20:03:49.831Z,100885.00
2022-10-17T20:06:17.378Z,100883.47
2022-10-17T20:08:44.124Z,100880.16
2022-10-17T20:11:28.084Z,100873.78
2022-10-17T20:13:55.771Z,100884.13
2022-10-17T20:16:28.028Z,100883.28
2022-10-17T20:18:57.019Z,100878.00
2022-10-17T20:21:31.659Z,100881.50
2022-10-17T20:23:59.841Z,100873.56
2022-10-17T20:26:42.861Z,100876.69
2022-10-17T20:29:15.654Z,100869.16
2022-10-17T20:31:44.701Z,100872.41
2022-10-17T20:34:16.320Z,100874.09
2022-10-17T20:36:43.427Z,100861.09
2022-10-17T20:39:12.205Z,100871.78
2022-10-17T20:41:39.000Z,100867.38
2022-10-17T20:44:07.010Z,100864.88
2022-10-17T20:46:38.309Z,100874.25
2022-10-17T20:49:10.876Z,100872.88
2022-10-17T20:51:37.552Z,100878.00
2022-10-17T20:54:04.396Z,100871.13
2022-10-17T20:56:33.984Z,100873.63
2022-10-17T20:59:05.204Z,100873.94
2022-10-17T21:01:33.715Z,100878.31
2022-10-17T21:04:15.833Z,100866.84
2022-10-17T21:06:51.953Z,100862.38
2022-10-17T21:09:18.935Z,100874.72
2022-10-17T21:11:45.800Z,100879.84
2022-10-17T21:14:12.781Z,100875.06
2022-10-17T21:16:41.314Z,100872.72
2022-10-17T21:19:07.961Z,100875.59
2022-10-17T21:21:37.248Z,100880.25
2022-10-17T21:24:06.549Z,100867.31
2022-10-17T21:26:35.260Z,100868.50
2022-10-17T21:29:05.684Z,100867.97
2022-10-17T21:31:34.669Z,100873.28
2022-10-17T21:34:06.072Z,100868.25
2022-10-17T21:36:32.702Z,100861.28
2022-10-17T21:38:59.364Z,100863.44
2022-10-17T21:41:28.717Z,100870.19
2022-10-17T21:43:57.773Z,100868.19
2022-10-17T21:46:25.122Z,100864.28
2022-10-17T21:48:52.281Z,100857.53
2022-10-17T21:51:21.215Z,100860.75
2022-10-17T21:53:48.266Z,100865.22
2022-10-17T21:56:20.256Z,100863.97
2022-10-17T21:58:47.417Z,100872.03
2022-10-17T22:01:20.353Z,100864.59
2022-10-17T22:03:49.534Z,100864.22
2022-10-17T22:09:12.010Z,100857.63
2022-10-17T22:11:38.683Z,100860.91
2022-10-17T22:14:07.750Z,100858.50
2022-10-17T22:16:35.021Z,100861.84
2022-10-17T22:19:06.157Z,100848.88
2022-10-17T22:21:34.959Z,100841.16
2022-10-17T22:24:03.417Z,100839.13
2022-10-17T22:26:31.885Z,100840.44
2022-10-17T22:28:58.664Z,100854.19
2022-10-17T22:31:25.723Z,100838.63
2022-10-17T22:33:52.695Z,100856.25
2022-10-17T22:36:19.614Z,100837.50
2022-10-17T22:38:46.298Z,100840.00
2022-10-17T22:41:12.966Z,100844.09
2022-10-17T22:43:39.650Z,100847.03
2022-10-17T22:46:07.400Z,100836.41
2022-10-17T22:48:34.421Z,100833.69
2022-10-17T22:51:01.488Z,100841.53
2022-10-17T22:53:29.798Z,100844.31
2022-10-17T22:56:00.732Z,100838.50
2022-10-17T22:58:28.716Z,100841.41
2022-10-17T23:00:56.018Z,100847.91
2022-10-17T23:03:23.966Z,100839.25
2022-10-17T23:05:51.086Z,100837.66
2022-10-17T23:08:18.766Z,100834.41
2022-10-17T23:10:46.491Z,100836.94
2022-10-17T23:13:14.201Z,100841.31
2022-10-17T23:15:40.872Z,100833.44
2022-10-17T23:18:07.871Z,100842.31
2022-10-17T23:20:34.664Z,100841.66
2022-10-17T23:23:01.284Z,100841.66
2022-10-17T23:25:27.926Z,100856.66
2022-10-17T23:27:54.730Z,100859.38
2022-10-17T23:30:21.345Z,100836.41
2022-10-17T23:32:48.083Z,100856.41
2022-10-17T23:35:15.020Z,100850.53
2022-10-17T23:37:41.840Z,100866.00
2022-10-17T23:40:09.284Z,100855.47
2022-10-17T23:42:35.881Z,100846.25
2022-10-17T23:45:02.893Z,100841.69
2022-10-17T23:47:31.286Z,100841.72
2022-10-17T23:49:58.410Z,100844.72
2022-10-17T23:52:25.206Z,100838.75
2022-10-17T23:54:51.875Z,100837.13
2022-10-17T23:57:18.580Z,100843.22
2022-10-17T23:59:45.233Z,100838.13
